sensor_id;sensor_type;location;lat;lon;timestamp;P1;durP1;ratioP1;P2;durP2;ratioP2
34695;SDS011;20918;51.138;17.370;2022-09-09T00:11:49;18.17;;;11.17;;
34695;SDS011;20918;51.138;17.370;2022-09-09T00:14:51;14.75;;;11.83;;
34695;SDS011;20918;51.138;17.370;2022-09-09T00:21:35;11.90;;;10.28;;
34695;SDS011;20918;51.138;17.370;2022-09-09T00:24:41;14.85;;;11.18;;
34695;SDS011;20918;51.138;17.370;2022-09-09T00:27:56;13.70;;;9.00;;
34695;SDS011;20918;51.138;17.370;2022-09-09T00:30:59;16.23;;;10.63;;
34695;SDS011;20918;51.138;17.370;2022-09-09T00:34:19;18.52;;;10.40;;
34695;SDS011;20918;51.138;17.370;2022-09-09T00:37:22;15.03;;;10.48;;
34695;SDS011;20918;51.138;17.370;2022-09-09T00:40:34;13.50;;;10.00;;
34695;SDS011;20918;51.138;17.370;2022-09-09T00:43:41;14.93;;;10.50;;
34695;SDS011;20918;51.138;17.370;2022-09-09T00:50:35;11.68;;;10.45;;
34695;SDS011;20918;51.138;17.370;2022-09-09T00:53:57;12.05;;;10.45;;
34695;SDS011;20918;51.138;17.370;2022-09-09T00:57:25;13.60;;;11.33;;
34695;SDS011;20918;51.138;17.370;2022-09-09T01:00:44;14.90;;;10.08;;
34695;SDS011;20918;51.138;17.370;2022-09-09T01:03:52;16.30;;;11.40;;
34695;SDS011;20918;51.138;17.370;2022-09-09T01:06:56;19.30;;;11.03;;
34695;SDS011;20918;51.138;17.370;2022-09-09T01:10:01;10.95;;;9.73;;
34695;SDS011;20918;51.138;17.370;2022-09-09T01:13:11;10.90;;;8.38;;
34695;SDS011;20918;51.138;17.370;2022-09-09T01:16:24;12.68;;;10.60;;
34695;SDS011;20918;51.138;17.370;2022-09-09T01:19:31;12.50;;;11.18;;
34695;SDS011;20918;51.138;17.370;2022-09-09T01:22:44;15.30;;;9.58;;
34695;SDS011;20918;51.138;17.370;2022-09-09T01:26:04;12.03;;;10.50;;
34695;SDS011;20918;51.138;17.370;2022-09-09T01:29:21;11.43;;;9.70;;
34695;SDS011;20918;51.138;17.370;2022-09-09T01:36:02;11.85;;;9.28;;
34695;SDS011;20918;51.138;17.370;2022-09-09T01:39:23;12.70;;;9.65;;
34695;SDS011;20918;51.138;17.370;2022-09-09T01:42:27;10.13;;;8.83;;
34695;SDS011;20918;51.138;17.370;2022-09-09T01:45:29;13.45;;;7.75;;
34695;SDS011;20918;51.138;17.370;2022-09-09T01:48:32;9.35;;;8.45;;
34695;SDS011;20918;51.138;17.370;2022-09-09T01:51:36;12.00;;;9.63;;
34695;SDS011;20918;51.138;17.370;2022-09-09T01:54:41;13.75;;;9.70;;
34695;SDS011;20918;51.138;17.370;2022-09-09T02:01:29;11.80;;;8.90;;
34695;SDS011;20918;51.138;17.370;2022-09-09T02:07:49;9.60;;;8.70;;
34695;SDS011;20918;51.138;17.370;2022-09-09T02:11:02;10.25;;;9.08;;
34695;SDS011;20918;51.138;17.370;2022-09-09T02:14:30;9.73;;;8.73;;
34695;SDS011;20918;51.138;17.370;2022-09-09T02:17:39;8.63;;;7.83;;
34695;SDS011;20918;51.138;17.370;2022-09-09T02:20:47;8.45;;;7.65;;
34695;SDS011;20918;51.138;17.370;2022-09-09T02:23:49;11.33;;;7.42;;
34695;SDS011;20918;51.138;17.370;2022-09-09T02:26:53;12.20;;;7.58;;
34695;SDS011;20918;51.138;17.370;2022-09-09T02:29:58;9.10;;;8.20;;
34695;SDS011;20918;51.138;17.370;2022-09-09T02:33:10;10.08;;;8.15;;
34695;SDS011;20918;51.138;17.370;2022-09-09T02:36:21;9.03;;;8.13;;
34695;SDS011;20918;51.138;17.370;2022-09-09T02:39:25;9.93;;;8.13;;
34695;SDS011;20918;51.138;17.370;2022-09-09T02:42:26;8.05;;;7.25;;
34695;SDS011;20918;51.138;17.370;2022-09-09T02:45:38;14.03;;;8.55;;
34695;SDS011;20918;51.138;17.370;2022-09-09T02:48:59;9.40;;;7.60;;
34695;SDS011;20918;51.138;17.370;2022-09-09T02:52:07;12.40;;;7.70;;
34695;SDS011;20918;51.138;17.370;2022-09-09T02:55:24;11.18;;;7.75;;
34695;SDS011;20918;51.138;17.370;2022-09-09T02:58:33;9.90;;;7.35;;
34695;SDS011;20918;51.138;17.370;2022-09-09T03:01:36;8.28;;;7.58;;
34695;SDS011;20918;51.138;17.370;2022-09-09T03:04:39;8.50;;;7.50;;
34695;SDS011;20918;51.138;17.370;2022-09-09T03:07:42;9.10;;;8.28;;
34695;SDS011;20918;51.138;17.370;2022-09-09T03:10:44;9.30;;;8.33;;
34695;SDS011;20918;51.138;17.370;2022-09-09T03:13:46;12.55;;;6.85;;
34695;SDS011;20918;51.138;17.370;2022-09-09T03:16:49;7.90;;;7.12;;
34695;SDS011;20918;51.138;17.370;2022-09-09T03:19:51;6.65;;;6.00;;
34695;SDS011;20918;51.138;17.370;2022-09-09T03:22:54;8.10;;;5.42;;
34695;SDS011;20918;51.138;17.370;2022-09-09T03:25:56;7.20;;;6.50;;
34695;SDS011;20918;51.138;17.370;2022-09-09T03:29:00;17.62;;;6.53;;
34695;SDS011;20918;51.138;17.370;2022-09-09T03:32:03;446.03;;;12.40;;
34695;SDS011;20918;51.138;17.370;2022-09-09T03:35:04;130.03;;;6.37;;
34695;SDS011;20918;51.138;17.370;2022-09-09T03:38:06;174.38;;;6.92;;
34695;SDS011;20918;51.138;17.370;2022-09-09T03:41:08;142.57;;;7.75;;
34695;SDS011;20918;51.138;17.370;2022-09-09T03:44:09;111.17;;;7.75;;
34695;SDS011;20918;51.138;17.370;2022-09-09T03:47:12;383.65;;;12.40;;
34695;SDS011;20918;51.138;17.370;2022-09-09T03:50:14;220.82;;;9.78;;
34695;SDS011;20918;51.138;17.370;2022-09-09T03:53:18;195.43;;;7.67;;
34695;SDS011;20918;51.138;17.370;2022-09-09T03:56:22;129.93;;;6.42;;
34695;SDS011;20918;51.138;17.370;2022-09-09T03:59:24;68.47;;;4.85;;
34695;SDS011;20918;51.138;17.370;2022-09-09T04:02:25;144.90;;;6.75;;
34695;SDS011;20918;51.138;17.370;2022-09-09T04:05:27;173.62;;;7.03;;
34695;SDS011;20918;51.138;17.370;2022-09-09T04:08:28;18.30;;;4.55;;
34695;SDS011;20918;51.138;17.370;2022-09-09T04:11:32;64.60;;;4.58;;
34695;SDS011;20918;51.138;17.370;2022-09-09T04:14:34;128.53;;;5.72;;
34695;SDS011;20918;51.138;17.370;2022-09-09T04:17:37;151.97;;;5.67;;
34695;SDS011;20918;51.138;17.370;2022-09-09T04:20:39;225.10;;;7.12;;
34695;SDS011;20918;51.138;17.370;2022-09-09T04:23:40;28.40;;;4.30;;
34695;SDS011;20918;51.138;17.370;2022-09-09T04:26:42;153.50;;;6.40;;
34695;SDS011;20918;51.138;17.370;2022-09-09T04:29:44;148.53;;;7.78;;
34695;SDS011;20918;51.138;17.370;2022-09-09T04:32:46;145.17;;;7.65;;
34695;SDS011;20918;51.138;17.370;2022-09-09T04:35:48;8.53;;;4.47;;
34695;SDS011;20918;51.138;17.370;2022-09-09T04:38:52;5.53;;;4.53;;
34695;SDS011;20918;51.138;17.370;2022-09-09T04:41:53;5.62;;;4.55;;
34695;SDS011;20918;51.138;17.370;2022-09-09T04:44:55;66.77;;;8.20;;
34695;SDS011;20918;51.138;17.370;2022-09-09T04:47:57;41.90;;;7.08;;
34695;SDS011;20918;51.138;17.370;2022-09-09T04:50:59;18.50;;;7.03;;
34695;SDS011;20918;51.138;17.370;2022-09-09T04:54:05;17.27;;;7.30;;
34695;SDS011;20918;51.138;17.370;2022-09-09T04:57:06;6.30;;;5.80;;
34695;SDS011;20918;51.138;17.370;2022-09-09T05:00:08;6.30;;;5.70;;
34695;SDS011;20918;51.138;17.370;2022-09-09T05:03:12;7.47;;;6.30;;
34695;SDS011;20918;51.138;17.370;2022-09-09T05:06:15;8.30;;;7.53;;
34695;SDS011;20918;51.138;17.370;2022-09-09T05:09:23;7.25;;;6.55;;
34695;SDS011;20918;51.138;17.370;2022-09-09T05:12:25;8.90;;;8.15;;
34695;SDS011;20918;51.138;17.370;2022-09-09T05:15:26;8.95;;;8.05;;
34695;SDS011;20918;51.138;17.370;2022-09-09T05:18:27;11.12;;;9.40;;
34695;SDS011;20918;51.138;17.370;2022-09-09T05:21:28;10.98;;;7.72;;
34695;SDS011;20918;51.138;17.370;2022-09-09T05:24:31;8.90;;;8.13;;
34695;SDS011;20918;51.138;17.370;2022-09-09T05:27:34;6.60;;;6.10;;
34695;SDS011;20918;51.138;17.370;2022-09-09T05:30:35;7.08;;;6.47;;
34695;SDS011;20918;51.138;17.370;2022-09-09T05:33:38;6.47;;;5.87;;
34695;SDS011;20918;51.138;17.370;2022-09-09T05:36:41;7.90;;;5.65;;
34695;SDS011;20918;51.138;17.370;2022-09-09T05:39:43;5.60;;;5.15;;
34695;SDS011;20918;51.138;17.370;2022-09-09T05:42:45;5.80;;;5.30;;
34695;SDS011;20918;51.138;17.370;2022-09-09T05:45:46;5.25;;;4.75;;
34695;SDS011;20918;51.138;17.370;2022-09-09T05:48:49;5.28;;;4.72;;
34695;SDS011;20918;51.138;17.370;2022-09-09T05:51:52;6.92;;;4.97;;
34695;SDS011;20918;51.138;17.370;2022-09-09T05:54:54;4.45;;;4.00;;
34695;SDS011;20918;51.138;17.370;2022-09-09T05:57:57;9.98;;;4.55;;
34695;SDS011;20918;51.138;17.370;2022-09-09T06:01:03;6.42;;;3.95;;
34695;SDS011;20918;51.138;17.370;2022-09-09T06:04:12;5.25;;;3.15;;
34695;SDS011;20918;51.138;17.370;2022-09-09T06:07:13;3.22;;;2.92;;
34695;SDS011;20918;51.138;17.370;2022-09-09T06:10:15;6.87;;;3.42;;
34695;SDS011;20918;51.138;17.370;2022-09-09T06:13:16;3.45;;;2.98;;
34695;SDS011;20918;51.138;17.370;2022-09-09T06:16:19;3.42;;;3.08;;
34695;SDS011;20918;51.138;17.370;2022-09-09T06:19:24;4.50;;;3.10;;
34695;SDS011;20918;51.138;17.370;2022-09-09T06:22:28;3.45;;;2.80;;
34695;SDS011;20918;51.138;17.370;2022-09-09T06:25:30;3.12;;;2.35;;
34695;SDS011;20918;51.138;17.370;2022-09-09T06:28:33;3.85;;;2.72;;
34695;SDS011;20918;51.138;17.370;2022-09-09T06:31:36;2.72;;;2.52;;
34695;SDS011;20918;51.138;17.370;2022-09-09T06:34:40;5.12;;;2.75;;
34695;SDS011;20918;51.138;17.370;2022-09-09T06:37:44;3.20;;;2.55;;
34695;SDS011;20918;51.138;17.370;2022-09-09T06:40:55;2.20;;;2.10;;
34695;SDS011;20918;51.138;17.370;2022-09-09T06:43:59;3.30;;;2.30;;
34695;SDS011;20918;51.138;17.370;2022-09-09T06:47:06;4.83;;;2.42;;
34695;SDS011;20918;51.138;17.370;2022-09-09T06:50:08;2.52;;;2.33;;
34695;SDS011;20918;51.138;17.370;2022-09-09T06:53:12;3.35;;;1.92;;
34695;SDS011;20918;51.138;17.370;2022-09-09T06:59:38;2.50;;;1.85;;
34695;SDS011;20918;51.138;17.370;2022-09-09T07:02:39;3.92;;;1.95;;
34695;SDS011;20918;51.138;17.370;2022-09-09T07:05:42;2.85;;;2.22;;
34695;SDS011;20918;51.138;17.370;2022-09-09T07:08:52;2.42;;;2.00;;
34695;SDS011;20918;51.138;17.370;2022-09-09T07:11:57;5.28;;;2.00;;
34695;SDS011;20918;51.138;17.370;2022-09-09T07:15:01;5.97;;;2.20;;
34695;SDS011;20918;51.138;17.370;2022-09-09T07:18:03;1.90;;;1.70;;
34695;SDS011;20918;51.138;17.370;2022-09-09T07:21:06;6.45;;;2.47;;
34695;SDS011;20918;51.138;17.370;2022-09-09T07:24:09;1.98;;;1.70;;
34695;SDS011;20918;51.138;17.370;2022-09-09T07:27:12;2.10;;;1.50;;
34695;SDS011;20918;51.138;17.370;2022-09-09T07:30:14;3.27;;;1.87;;
34695;SDS011;20918;51.138;17.370;2022-09-09T07:33:16;5.22;;;1.82;;
34695;SDS011;20918;51.138;17.370;2022-09-09T07:36:24;3.25;;;1.70;;
34695;SDS011;20918;51.138;17.370;2022-09-09T07:39:31;2.02;;;1.47;;
34695;SDS011;20918;51.138;17.370;2022-09-09T07:42:33;2.10;;;1.30;;
34695;SDS011;20918;51.138;17.370;2022-09-09T07:45:35;1.95;;;1.60;;
34695;SDS011;20918;51.138;17.370;2022-09-09T07:48:37;8.40;;;2.12;;
34695;SDS011;20918;51.138;17.370;2022-09-09T07:51:40;1.67;;;1.42;;
34695;SDS011;20918;51.138;17.370;2022-09-09T07:54:46;3.10;;;1.47;;
34695;SDS011;20918;51.138;17.370;2022-09-09T07:57:47;1.82;;;1.50;;
34695;SDS011;20918;51.138;17.370;2022-09-09T08:00:51;3.08;;;1.70;;
34695;SDS011;20918;51.138;17.370;2022-09-09T08:03:55;3.47;;;1.80;;
34695;SDS011;20918;51.138;17.370;2022-09-09T08:07:05;1.77;;;1.67;;
34695;SDS011;20918;51.138;17.370;2022-09-09T08:10:08;5.25;;;2.00;;
34695;SDS011;20918;51.138;17.370;2022-09-09T08:13:12;2.15;;;1.60;;
34695;SDS011;20918;51.138;17.370;2022-09-09T08:16:22;4.45;;;1.62;;
34695;SDS011;20918;51.138;17.370;2022-09-09T08:19:26;2.30;;;1.92;;
34695;SDS011;20918;51.138;17.370;2022-09-09T08:22:30;4.83;;;1.60;;
34695;SDS011;20918;51.138;17.370;2022-09-09T08:25:31;2.60;;;1.90;;
34695;SDS011;20918;51.138;17.370;2022-09-09T08:28:34;1.90;;;1.00;;
34695;SDS011;20918;51.138;17.370;2022-09-09T08:31:37;5.47;;;1.30;;
34695;SDS011;20918;51.138;17.370;2022-09-09T08:34:48;2.25;;;1.40;;
34695;SDS011;20918;51.138;17.370;2022-09-09T08:37:53;1.47;;;1.37;;
34695;SDS011;20918;51.138;17.370;2022-09-09T08:41:00;2.60;;;1.60;;
34695;SDS011;20918;51.138;17.370;2022-09-09T08:51:07;2.90;;;1.45;;
34695;SDS011;20918;51.138;17.370;2022-09-09T08:54:11;3.90;;;1.75;;
34695;SDS011;20918;51.138;17.370;2022-09-09T08:57:18;1.47;;;1.10;;
34695;SDS011;20918;51.138;17.370;2022-09-09T09:00:32;9.10;;;2.02;;
34695;SDS011;20918;51.138;17.370;2022-09-09T09:06:48;2.37;;;1.40;;
34695;SDS011;20918;51.138;17.370;2022-09-09T09:13:42;4.20;;;1.05;;
34695;SDS011;20918;51.138;17.370;2022-09-09T09:17:07;1.77;;;1.00;;
34695;SDS011;20918;51.138;17.370;2022-09-09T09:20:20;2.67;;;1.00;;
34695;SDS011;20918;51.138;17.370;2022-09-09T09:23:42;2.50;;;1.25;;
34695;SDS011;20918;51.138;17.370;2022-09-09T09:27:08;3.17;;;1.60;;
34695;SDS011;20918;51.138;17.370;2022-09-09T09:30:17;4.05;;;1.12;;
34695;SDS011;20918;51.138;17.370;2022-09-09T09:33:44;2.60;;;1.35;;
34695;SDS011;20918;51.138;17.370;2022-09-09T09:36:55;2.70;;;0.90;;
34695;SDS011;20918;51.138;17.370;2022-09-09T09:40:13;2.35;;;1.10;;
34695;SDS011;20918;51.138;17.370;2022-09-09T09:43:19;1.50;;;0.90;;
34695;SDS011;20918;51.138;17.370;2022-09-09T09:46:26;1.42;;;1.20;;
34695;SDS011;20918;51.138;17.370;2022-09-09T09:49:30;1.60;;;1.20;;
34695;SDS011;20918;51.138;17.370;2022-09-09T09:52:33;2.77;;;1.00;;
34695;SDS011;20918;51.138;17.370;2022-09-09T09:55:44;2.37;;;1.17;;
34695;SDS011;20918;51.138;17.370;2022-09-09T10:02:05;3.47;;;1.10;;
34695;SDS011;20918;51.138;17.370;2022-09-09T10:05:24;2.00;;;1.20;;
34695;SDS011;20918;51.138;17.370;2022-09-09T10:08:33;6.95;;;1.72;;
34695;SDS011;20918;51.138;17.370;2022-09-09T10:15:26;2.20;;;1.40;;
34695;SDS011;20918;51.138;17.370;2022-09-09T10:18:59;1.82;;;1.30;;
34695;SDS011;20918;51.138;17.370;2022-09-09T10:22:24;2.05;;;1.42;;
34695;SDS011;20918;51.138;17.370;2022-09-09T10:25:33;2.37;;;1.50;;
34695;SDS011;20918;51.138;17.370;2022-09-09T10:39:04;2.45;;;1.72;;
34695;SDS011;20918;51.138;17.370;2022-09-09T10:42:29;2.07;;;1.40;;
34695;SDS011;20918;51.138;17.370;2022-09-09T10:45:49;2.40;;;1.40;;
34695;SDS011;20918;51.138;17.370;2022-09-09T10:52:19;1.62;;;1.35;;
34695;SDS011;20918;51.138;17.370;2022-09-09T10:55:38;1.98;;;1.40;;
34695;SDS011;20918;51.138;17.370;2022-09-09T11:02:10;1.62;;;1.35;;
34695;SDS011;20918;51.138;17.370;2022-09-09T11:05:20;1.98;;;1.12;;
34695;SDS011;20918;51.138;17.370;2022-09-09T11:08:36;6.90;;;1.50;;
34695;SDS011;20918;51.138;17.370;2022-09-09T11:11:49;3.02;;;1.52;;
34695;SDS011;20918;51.138;17.370;2022-09-09T11:18:08;1.75;;;1.20;;
34695;SDS011;20918;51.138;17.370;2022-09-09T11:21:20;4.17;;;1.80;;
34695;SDS011;20918;51.138;17.370;2022-09-09T11:27:53;2.58;;;1.37;;
34695;SDS011;20918;51.138;17.370;2022-09-09T11:31:44;2.45;;;1.22;;
34695;SDS011;20918;51.138;17.370;2022-09-09T11:35:14;2.37;;;1.17;;
34695;SDS011;20918;51.138;17.370;2022-09-09T11:38:27;2.45;;;1.70;;
34695;SDS011;20918;51.138;17.370;2022-09-09T11:41:47;2.33;;;1.30;;
34695;SDS011;20918;51.138;17.370;2022-09-09T11:44:50;2.77;;;1.30;;
34695;SDS011;20918;51.138;17.370;2022-09-09T11:47:55;5.30;;;1.42;;
34695;SDS011;20918;51.138;17.370;2022-09-09T11:51:00;2.08;;;1.10;;
34695;SDS011;20918;51.138;17.370;2022-09-09T11:57:35;6.03;;;1.45;;
34695;SDS011;20918;51.138;17.370;2022-09-09T12:00:39;2.17;;;1.42;;
34695;SDS011;20918;51.138;17.370;2022-09-09T12:03:50;4.12;;;1.30;;
34695;SDS011;20918;51.138;17.370;2022-09-09T12:10:35;2.47;;;1.37;;
34695;SDS011;20918;51.138;17.370;2022-09-09T12:13:40;3.55;;;1.40;;
34695;SDS011;20918;51.138;17.370;2022-09-09T12:16:47;3.72;;;1.20;;
34695;SDS011;20918;51.138;17.370;2022-09-09T12:19:59;1.40;;;1.10;;
34695;SDS011;20918;51.138;17.370;2022-09-09T12:30:18;1.87;;;1.10;;
34695;SDS011;20918;51.138;17.370;2022-09-09T12:33:22;1.52;;;1.20;;
34695;SDS011;20918;51.138;17.370;2022-09-09T12:36:28;2.22;;;1.05;;
34695;SDS011;20918;51.138;17.370;2022-09-09T12:39:34;1.85;;;1.20;;
34695;SDS011;20918;51.138;17.370;2022-09-09T12:42:52;2.27;;;1.12;;
34695;SDS011;20918;51.138;17.370;2022-09-09T12:49:04;1.33;;;1.20;;
34695;SDS011;20918;51.138;17.370;2022-09-09T12:52:08;1.05;;;1.05;;
34695;SDS011;20918;51.138;17.370;2022-09-09T12:55:18;1.72;;;1.02;;
34695;SDS011;20918;51.138;17.370;2022-09-09T12:58:25;5.37;;;1.42;;
34695;SDS011;20918;51.138;17.370;2022-09-09T13:01:31;2.33;;;1.12;;
34695;SDS011;20918;51.138;17.370;2022-09-09T13:04:34;3.20;;;1.30;;
34695;SDS011;20918;51.138;17.370;2022-09-09T13:07:35;2.75;;;1.00;;
34695;SDS011;20918;51.138;17.370;2022-09-09T13:10:39;1.72;;;1.35;;
34695;SDS011;20918;51.138;17.370;2022-09-09T13:16:56;2.80;;;1.17;;
34695;SDS011;20918;51.138;17.370;2022-09-09T13:20:04;1.47;;;1.25;;
34695;SDS011;20918;51.138;17.370;2022-09-09T13:23:12;1.32;;;1.20;;
34695;SDS011;20918;51.138;17.370;2022-09-09T13:26:25;2.50;;;1.20;;
34695;SDS011;20918;51.138;17.370;2022-09-09T13:29:28;3.37;;;1.17;;
34695;SDS011;20918;51.138;17.370;2022-09-09T13:32:30;3.40;;;1.12;;
34695;SDS011;20918;51.138;17.370;2022-09-09T13:35:32;2.08;;;1.25;;
34695;SDS011;20918;51.138;17.370;2022-09-09T13:38:53;2.65;;;1.00;;
34695;SDS011;20918;51.138;17.370;2022-09-09T13:41:59;2.05;;;1.00;;
34695;SDS011;20918;51.138;17.370;2022-09-09T13:45:04;2.05;;;1.00;;
34695;SDS011;20918;51.138;17.370;2022-09-09T13:48:10;1.80;;;1.10;;
34695;SDS011;20918;51.138;17.370;2022-09-09T13:51:28;1.77;;;0.82;;
34695;SDS011;20918;51.138;17.370;2022-09-09T13:54:35;3.02;;;1.10;;
34695;SDS011;20918;51.138;17.370;2022-09-09T13:57:37;1.57;;;1.05;;
34695;SDS011;20918;51.138;17.370;2022-09-09T14:00:38;1.92;;;1.15;;
34695;SDS011;20918;51.138;17.370;2022-09-09T14:03:40;1.87;;;1.00;;
34695;SDS011;20918;51.138;17.370;2022-09-09T14:06:41;3.30;;;1.40;;
34695;SDS011;20918;51.138;17.370;2022-09-09T14:09:44;1.55;;;1.12;;
34695;SDS011;20918;51.138;17.370;2022-09-09T14:12:48;8.15;;;1.40;;
34695;SDS011;20918;51.138;17.370;2022-09-09T14:15:49;2.58;;;1.30;;
34695;SDS011;20918;51.138;17.370;2022-09-09T14:18:51;2.30;;;1.00;;
34695;SDS011;20918;51.138;17.370;2022-09-09T14:21:52;1.87;;;1.10;;
34695;SDS011;20918;51.138;17.370;2022-09-09T14:24:54;1.82;;;1.27;;
34695;SDS011;20918;51.138;17.370;2022-09-09T14:41:52;2.37;;;1.35;;
34695;SDS011;20918;51.138;17.370;2022-09-09T14:44:54;2.33;;;1.22;;
34695;SDS011;20918;51.138;17.370;2022-09-09T14:47:56;3.00;;;1.22;;
34695;SDS011;20918;51.138;17.370;2022-09-09T14:54:17;3.72;;;1.35;;
34695;SDS011;20918;51.138;17.370;2022-09-09T14:57:19;1.30;;;1.20;;
34695;SDS011;20918;51.138;17.370;2022-09-09T15:00:20;1.90;;;1.02;;
34695;SDS011;20918;51.138;17.370;2022-09-09T15:03:22;1.35;;;1.20;;
34695;SDS011;20918;51.138;17.370;2022-09-09T15:06:33;1.75;;;1.30;;
34695;SDS011;20918;51.138;17.370;2022-09-09T15:09:38;3.98;;;1.20;;
34695;SDS011;20918;51.138;17.370;2022-09-09T15:12:41;3.02;;;1.40;;
34695;SDS011;20918;51.138;17.370;2022-09-09T15:15:45;5.12;;;1.27;;
34695;SDS011;20918;51.138;17.370;2022-09-09T15:18:49;2.62;;;1.12;;
34695;SDS011;20918;51.138;17.370;2022-09-09T15:21:58;1.52;;;1.35;;
34695;SDS011;20918;51.138;17.370;2022-09-09T15:25:00;1.67;;;1.42;;
34695;SDS011;20918;51.138;17.370;2022-09-09T15:28:01;2.35;;;1.35;;
34695;SDS011;20918;51.138;17.370;2022-09-09T15:31:06;3.62;;;1.25;;
34695;SDS011;20918;51.138;17.370;2022-09-09T15:34:20;1.50;;;1.07;;
34695;SDS011;20918;51.138;17.370;2022-09-09T15:37:23;4.70;;;1.15;;
34695;SDS011;20918;51.138;17.370;2022-09-09T15:40:24;3.30;;;1.35;;
34695;SDS011;20918;51.138;17.370;2022-09-09T15:43:30;4.03;;;1.17;;
34695;SDS011;20918;51.138;17.370;2022-09-09T15:46:32;3.00;;;1.32;;
34695;SDS011;20918;51.138;17.370;2022-09-09T15:49:38;2.05;;;1.40;;
34695;SDS011;20918;51.138;17.370;2022-09-09T15:52:40;4.35;;;1.20;;
34695;SDS011;20918;51.138;17.370;2022-09-09T15:55:41;4.30;;;1.42;;
34695;SDS011;20918;51.138;17.370;2022-09-09T15:58:42;2.10;;;1.37;;
34695;SDS011;20918;51.138;17.370;2022-09-09T16:01:44;2.87;;;1.35;;
34695;SDS011;20918;51.138;17.370;2022-09-09T16:04:45;3.22;;;1.50;;
34695;SDS011;20918;51.138;17.370;2022-09-09T16:33:03;2.52;;;1.85;;
34695;SDS011;20918;51.138;17.370;2022-09-09T16:36:05;1.60;;;1.50;;
34695;SDS011;20918;51.138;17.370;2022-09-09T16:39:13;2.52;;;1.60;;
34695;SDS011;20918;51.138;17.370;2022-09-09T16:42:17;4.85;;;1.30;;
34695;SDS011;20918;51.138;17.370;2022-09-09T16:45:18;1.40;;;1.20;;
34695;SDS011;20918;51.138;17.370;2022-09-09T16:48:19;3.05;;;1.50;;
34695;SDS011;20918;51.138;17.370;2022-09-09T16:51:22;2.80;;;1.37;;
34695;SDS011;20918;51.138;17.370;2022-09-09T16:54:28;2.80;;;1.72;;
34695;SDS011;20918;51.138;17.370;2022-09-09T16:57:29;5.75;;;1.90;;
34695;SDS011;20918;51.138;17.370;2022-09-09T17:00:31;3.20;;;2.40;;
34695;SDS011;20918;51.138;17.370;2022-09-09T17:03:34;3.58;;;2.60;;
34695;SDS011;20918;51.138;17.370;2022-09-09T17:06:35;5.92;;;2.27;;
34695;SDS011;20918;51.138;17.370;2022-09-09T17:09:38;2.58;;;1.87;;
34695;SDS011;20918;51.138;17.370;2022-09-09T17:12:40;7.25;;;2.75;;
34695;SDS011;20918;51.138;17.370;2022-09-09T17:15:42;2.58;;;1.82;;
34695;SDS011;20918;51.138;17.370;2022-09-09T17:18:44;3.47;;;1.70;;
34695;SDS011;20918;51.138;17.370;2022-09-09T17:21:46;3.30;;;2.25;;
34695;SDS011;20918;51.138;17.370;2022-09-09T17:24:49;4.30;;;2.30;;
34695;SDS011;20918;51.138;17.370;2022-09-09T17:27:50;7.08;;;2.40;;
34695;SDS011;20918;51.138;17.370;2022-09-09T17:30:51;6.22;;;2.42;;
34695;SDS011;20918;51.138;17.370;2022-09-09T17:33:54;2.98;;;2.22;;
34695;SDS011;20918;51.138;17.370;2022-09-09T17:36:56;3.10;;;1.90;;
34695;SDS011;20918;51.138;17.370;2022-09-09T17:39:57;4.28;;;2.60;;
34695;SDS011;20918;51.138;17.370;2022-09-09T17:42:59;6.22;;;2.35;;
34695;SDS011;20918;51.138;17.370;2022-09-09T17:46:10;5.80;;;1.87;;
34695;SDS011;20918;51.138;17.370;2022-09-09T17:49:32;2.70;;;1.92;;
34695;SDS011;20918;51.138;17.370;2022-09-09T17:52:34;3.30;;;2.00;;
34695;SDS011;20918;51.138;17.370;2022-09-09T17:55:35;2.98;;;2.02;;
34695;SDS011;20918;51.138;17.370;2022-09-09T17:58:37;2.70;;;2.00;;
34695;SDS011;20918;51.138;17.370;2022-09-09T18:01:41;3.62;;;1.75;;
34695;SDS011;20918;51.138;17.370;2022-09-09T18:04:45;3.67;;;2.40;;
34695;SDS011;20918;51.138;17.370;2022-09-09T18:07:47;3.67;;;2.20;;
34695;SDS011;20918;51.138;17.370;2022-09-09T18:10:52;6.72;;;2.37;;
34695;SDS011;20918;51.138;17.370;2022-09-09T18:13:56;3.55;;;2.37;;
34695;SDS011;20918;51.138;17.370;2022-09-09T18:17:01;6.20;;;2.20;;
34695;SDS011;20918;51.138;17.370;2022-09-09T18:20:05;5.80;;;2.20;;
34695;SDS011;20918;51.138;17.370;2022-09-09T18:23:07;2.80;;;2.30;;
34695;SDS011;20918;51.138;17.370;2022-09-09T18:26:11;6.53;;;3.75;;
34695;SDS011;20918;51.138;17.370;2022-09-09T18:29:17;8.58;;;4.20;;
34695;SDS011;20918;51.138;17.370;2022-09-09T18:32:24;6.75;;;4.12;;
34695;SDS011;20918;51.138;17.370;2022-09-09T18:35:26;5.15;;;4.00;;
34695;SDS011;20918;51.138;17.370;2022-09-09T18:38:28;7.08;;;3.95;;
34695;SDS011;20918;51.138;17.370;2022-09-09T18:41:36;7.72;;;4.05;;
34695;SDS011;20918;51.138;17.370;2022-09-09T18:44:41;4.40;;;3.25;;
34695;SDS011;20918;51.138;17.370;2022-09-09T18:47:43;11.53;;;3.30;;
34695;SDS011;20918;51.138;17.370;2022-09-09T18:50:48;3.95;;;3.30;;
34695;SDS011;20918;51.138;17.370;2022-09-09T18:53:50;5.62;;;3.22;;
34695;SDS011;20918;51.138;17.370;2022-09-09T18:56:56;4.72;;;3.40;;
34695;SDS011;20918;51.138;17.370;2022-09-09T19:00:00;4.80;;;3.30;;
34695;SDS011;20918;51.138;17.370;2022-09-09T19:03:02;5.45;;;4.28;;
34695;SDS011;20918;51.138;17.370;2022-09-09T19:06:05;7.28;;;4.22;;
34695;SDS011;20918;51.138;17.370;2022-09-09T19:09:14;12.85;;;4.05;;
34695;SDS011;20918;51.138;17.370;2022-09-09T19:12:18;9.85;;;4.10;;
34695;SDS011;20918;51.138;17.370;2022-09-09T19:15:19;3.75;;;3.35;;
34695;SDS011;20918;51.138;17.370;2022-09-09T19:18:21;5.30;;;3.25;;
34695;SDS011;20918;51.138;17.370;2022-09-09T19:21:24;7.87;;;4.03;;
34695;SDS011;20918;51.138;17.370;2022-09-09T19:24:33;6.20;;;3.40;;
34695;SDS011;20918;51.138;17.370;2022-09-09T19:27:34;7.15;;;3.12;;
34695;SDS011;20918;51.138;17.370;2022-09-09T19:30:36;4.90;;;2.92;;
34695;SDS011;20918;51.138;17.370;2022-09-09T19:33:38;6.95;;;3.08;;
34695;SDS011;20918;51.138;17.370;2022-09-09T19:36:40;4.62;;;3.02;;
34695;SDS011;20918;51.138;17.370;2022-09-09T19:39:42;3.80;;;2.83;;
34695;SDS011;20918;51.138;17.370;2022-09-09T19:42:45;6.22;;;2.77;;
34695;SDS011;20918;51.138;17.370;2022-09-09T19:45:57;11.20;;;3.70;;
34695;SDS011;20918;51.138;17.370;2022-09-09T19:49:04;5.80;;;3.20;;
34695;SDS011;20918;51.138;17.370;2022-09-09T19:52:06;4.25;;;2.60;;
34695;SDS011;20918;51.138;17.370;2022-09-09T19:55:08;9.00;;;3.45;;
34695;SDS011;20918;51.138;17.370;2022-09-09T19:58:11;6.58;;;3.75;;
34695;SDS011;20918;51.138;17.370;2022-09-09T20:01:17;5.45;;;3.25;;
34695;SDS011;20918;51.138;17.370;2022-09-09T20:04:24;6.62;;;3.05;;
34695;SDS011;20918;51.138;17.370;2022-09-09T20:07:26;6.45;;;3.40;;
34695;SDS011;20918;51.138;17.370;2022-09-09T20:10:27;5.47;;;2.95;;
34695;SDS011;20918;51.138;17.370;2022-09-09T20:13:32;4.55;;;3.52;;
34695;SDS011;20918;51.138;17.370;2022-09-09T20:16:37;4.17;;;3.15;;
34695;SDS011;20918;51.138;17.370;2022-09-09T20:19:39;7.40;;;2.58;;
34695;SDS011;20918;51.138;17.370;2022-09-09T20:22:41;18.37;;;3.45;;
34695;SDS011;20918;51.138;17.370;2022-09-09T20:25:42;4.28;;;3.02;;
34695;SDS011;20918;51.138;17.370;2022-09-09T20:28:44;5.85;;;3.00;;
34695;SDS011;20918;51.138;17.370;2022-09-09T20:31:46;8.58;;;3.05;;
34695;SDS011;20918;51.138;17.370;2022-09-09T20:34:48;7.22;;;2.90;;
34695;SDS011;20918;51.138;17.370;2022-09-09T20:37:49;8.13;;;3.20;;